Terminal Aerodrome Forecast
Issued by NWS Wilmington, OH

Current Version | Previous Version | Graphics & Text | Print | Product List | Glossary On
Versions: 1 2 3 4 5 6 7 8 9 10 11 12 13 14 15 16 17 18 19 20 21 22 23 24
000
FTUS41 KILN 160907 AAA
TAFCVG
TAF AMD
KCVG 160907Z 1609/1712 00000KT P6SM SCT200
     FM161000 00000KT 4SM BR SCT200
     FM161300 00000KT P6SM SCT040
     FM162000 19006KT P6SM VCSH BKN050
     FM170100 18005KT P6SM SCT050 BKN150=

USA.gov is the U.S. government's official web portal to all federal, state and local government web resources and services.